KBOW/BOW METAR and TAF weather

Enter ICAO airport designator
Station Type Date Time Source
KBOW METAR 2019/12/13 13:55 UTC NOAA

KBOW 131355Z 00000KT 8SM BKN020 20/20 A3002


Station Type Date Time Source
KBOW Decoded METAR 2019/12/13 13:55 UTC NOAA

Bartow Municipal, FL, United States (KBOW) 27-57N 081-47W
Dec 13, 2019 - 08:55 AM EST / 2019.12.13 1355 UTC
Wind: Calm:0
Visibility: 8 mile(s):0
Sky conditions: mostly cloudy
Temperature: 68 F (20 C)
Dew Point: 68 F (20 C)
Relative Humidity: 100%
Pressure (altimeter): 30.02 in. Hg (1016 hPa)
ob: KBOW 131355Z 00000KT 8SM BKN020 20/20 A3002
cycle: 14

Station Type Date Time Source
KBOW TAF UTC NOAA

Error!

Example: see airport list